»·PEaware :: N365SP KSAN-KRNM

N365SP :: KSAN-KRNM

FLIGHT INFORMATION

Flight Status: Arrived
Operator: Privately registered:
United States
More flights under this callsign
Pilot: Michael K. (6354)
Aircraft: CESSNA 172 SKYHAWK
(C172)
More flights by this aircraft type
Origin: KSAN San Diego Intl-Lindbergh
United States
Destination: KRNM Ramona
United States
More flights between these airports :: More routes between these airports
Route: +
File this flight plan on PilotEdge
Remarks:
Altitude:
(Current/Filed)
5,500ft
Speed:
(Current/Filed)
0kts
Departed: 22-Nov-17 09:23 PM
Arrived: 22-Nov-17 09:55 PM
Distance/Time
Traveled:
23nm/0:32
Distance/Time
To Go:
Arrived

Flight Plot

Page will automatically refresh every two minutes.


Map Options




Map Legend


Flown Route
Filed Route
Departure Airport
Arrival Airport
Navaid (VOR, NDB)
Fix

Horizontal Profiles

Position Reports

Time Latitude Longitude Heading Altitude Ground
Speed
22-Nov-17 21:19 32.733335 -117.179340 182 18ft 0kts
22-Nov-17 21:20 32.733333 -117.179340 182 18ft 0kts
22-Nov-17 21:21 32.733332 -117.179340 182 18ft 0kts
22-Nov-17 21:22 32.733140 -117.179391 197 18ft 7kts
22-Nov-17 21:23 32.731707 -117.178211 105 18ft 17kts
22-Nov-17 21:24 32.730807 -117.175119 164 18ft 0kts
22-Nov-17 21:25 32.730803 -117.175117 163 18ft 0kts
22-Nov-17 21:26 32.730796 -117.175115 163 18ft 0kts
22-Nov-17 21:27 32.730794 -117.175114 163 18ft 0kts
22-Nov-17 21:28 32.731390 -117.181101 287 51ft 69kts
22-Nov-17 21:29 32.737495 -117.205699 286 780ft 79kts
22-Nov-17 21:30 32.729993 -117.208600 128 1511ft 84kts
22-Nov-17 21:31 32.716001 -117.186675 129 2272ft 82kts
22-Nov-17 21:32 32.698959 -117.166042 117 2772ft 95kts
22-Nov-17 21:33 32.684811 -117.137751 117 2706ft 94kts
22-Nov-17 21:34 32.671762 -117.109511 107 2680ft 97kts
22-Nov-17 21:35 32.660221 -117.080510 122 2780ft 99kts
22-Nov-17 21:36 32.644211 -117.049844 108 2661ft 107kts
22-Nov-17 21:37 32.635909 -117.022790 118 2661ft 100kts
22-Nov-17 21:38 32.615900 -116.989099 88 2950ft 100kts
22-Nov-17 21:39 32.642701 -116.984651 344 2704ft 112kts
22-Nov-17 21:40 32.671172 -116.983420 23 2669ft 94kts
22-Nov-17 21:41 32.690369 -116.971177 29 2716ft 91kts
22-Nov-17 21:42 32.719193 -116.965180 2 2816ft 94kts
22-Nov-17 21:43 32.747265 -116.962826 5 2659ft 104kts
22-Nov-17 21:44 32.770913 -116.959330 8 2726ft 83kts
22-Nov-17 21:45 32.796099 -116.956561 7 2711ft 97kts
22-Nov-17 21:46 32.823848 -116.953005 9 2686ft 98kts
22-Nov-17 21:47 32.849664 -116.946923 11 2897ft 95kts
22-Nov-17 21:48 32.878921 -116.940688 14 2910ft 105kts
22-Nov-17 21:49 32.908894 -116.934562 8 2831ft 102kts
22-Nov-17 21:50 32.939263 -116.932614 5 2766ft 114kts
22-Nov-17 21:51 32.969058 -116.930441 2 2609ft 105kts
22-Nov-17 21:52 32.972841 -116.924909 129 2856ft 92kts
22-Nov-17 21:53 32.964937 -116.905165 352 3190ft 84kts
22-Nov-17 21:54 32.991896 -116.909548 15 3128ft 108kts
22-Nov-17 21:55 33.020982 -116.902078 13 2497ft 101kts
22-Nov-17 21:56 33.037817 -116.909163 285 1619ft 77kts
22-Nov-17 21:57 33.033440 -116.930884 191 2262ft 90kts
22-Nov-17 21:58 33.024124 -116.910081 88 2354ft 86kts
22-Nov-17 21:59 33.038148 -116.909000 280 1410ft 82kts
22-Nov-17 22:00 33.040373 -116.919827 16 1396ft 0kts
22-Nov-17 22:01 33.040374 -116.919827 16 1396ft 0kts
22-Nov-17 22:02 33.040187 -116.917908 101 1396ft 17kts
22-Nov-17 22:03 33.039490 -116.913187 99 1396ft 13kts
22-Nov-17 22:04 33.038759 -116.908338 99 1396ft 14kts
22-Nov-17 22:05 33.039824 -116.907814 223 1396ft 0kts
22-Nov-17 22:06 33.039824 -116.907814 223 1396ft 0kts
22-Nov-17 22:07 33.039824 -116.907814 223 1396ft 0kts
22-Nov-17 22:08 33.039824 -116.907814 223 1396ft 0kts
22-Nov-17 22:09 33.039824 -116.907814 223 1396ft 0kts
22-Nov-17 22:10 33.039824 -116.907814 223 1396ft 0kts
22-Nov-17 22:11 33.039824 -116.907814 223 1396ft 0kts
22-Nov-17 22:12 33.039824 -116.907814 223 1396ft 0kts
22-Nov-17 22:13 33.039824 -116.907814 223 1396ft 0kts
22-Nov-17 22:14 33.039824 -116.907814 223 1396ft 0kts

Navigation Log

Ident Type
1. KSAN Airport
2. KRNM Airport